createdAt,value
2023-04-01T00:00:49.939Z,9.41
2023-04-01T00:01:51.633Z,9.37
2023-04-01T00:02:53.127Z,9.39
2023-04-01T00:03:55.453Z,9.47
2023-04-01T00:04:57.186Z,9.42
2023-04-01T00:06:00.524Z,9.43
2023-04-01T00:07:02.709Z,9.49
2023-04-01T00:08:04.296Z,9.55
2023-04-01T00:09:05.893Z,9.53
2023-04-01T00:10:09.389Z,9.52
2023-04-01T00:11:10.789Z,9.51
2023-04-01T00:12:12.261Z,9.57
2023-04-01T00:13:14.486Z,9.63
2023-04-01T00:14:16.064Z,9.62
2023-04-01T00:15:17.615Z,9.48
2023-04-01T00:16:21.588Z,9.47
2023-04-01T00:17:23.952Z,9.51
2023-04-01T00:18:26.186Z,9.58
2023-04-01T00:19:27.594Z,9.62
2023-04-01T00:20:29.991Z,9.62
2023-04-01T00:21:31.533Z,9.53
2023-04-01T00:22:33.131Z,9.53
2023-04-01T00:23:35.028Z,9.52
2023-04-01T00:24:36.674Z,9.61
2023-04-01T00:25:38.094Z,9.60
2023-04-01T00:26:39.494Z,9.61
2023-04-01T00:27:41.356Z,9.58
2023-04-01T00:28:42.773Z,9.63
2023-04-01T00:29:45.598Z,9.66
2023-04-01T00:30:48.105Z,9.58
2023-04-01T00:31:50.232Z,9.60
2023-04-01T00:32:55.078Z,9.67
2023-04-01T00:33:57.445Z,9.70
2023-04-01T00:35:00.980Z,9.76
2023-04-01T00:36:11.468Z,9.68
2023-04-01T00:37:13.064Z,9.58
2023-04-01T00:38:14.818Z,9.59
2023-04-01T00:39:16.337Z,9.63
2023-04-01T00:40:29.747Z,9.72
2023-04-01T00:41:31.655Z,9.74
2023-04-01T00:42:33.450Z,9.77
2023-04-01T00:43:35.554Z,9.81
2023-04-01T00:44:39.433Z,9.84
2023-04-01T00:45:43.605Z,9.87
2023-04-01T00:46:45.340Z,9.92
2023-04-01T00:47:47.214Z,9.91
2023-04-01T00:48:53.691Z,9.90
2023-04-01T00:49:56.122Z,9.89
2023-04-01T00:51:03.334Z,9.92
2023-04-01T00:52:07.552Z,9.94
2023-04-01T00:53:09.357Z,9.92
2023-04-01T00:54:12.049Z,9.90
2023-04-01T00:55:15.600Z,9.97
2023-04-01T00:56:23.246Z,9.95
2023-04-01T00:57:37.646Z,9.93
2023-04-01T00:58:44.936Z,9.96
2023-04-01T00:59:50.756Z,9.96
2023-04-01T01:00:53.320Z,9.97
2023-04-01T01:01:54.933Z,10.00
2023-04-01T01:02:56.458Z,10.03
2023-04-01T01:03:57.944Z,9.94
2023-04-01T01:04:59.400Z,9.91
2023-04-01T01:06:11.328Z,9.92
2023-04-01T01:07:41.902Z,9.94
2023-04-01T01:09:20.138Z,9.91
2023-04-01T01:10:32.809Z,9.89
2023-04-01T01:11:49.040Z,9.87
2023-04-01T01:12:59.947Z,9.87
2023-04-01T01:15:22.411Z,10.01
2023-04-01T01:16:41.930Z,10.00
2023-04-01T01:18:02.335Z,9.98
2023-04-01T01:19:10.584Z,10.06
2023-04-01T01:21:08.673Z,10.08
2023-04-01T01:22:34.544Z,10.07
2023-04-01T01:24:07.054Z,10.08
2023-04-01T01:25:13.957Z,10.07
2023-04-01T01:26:49.342Z,10.10
2023-04-01T01:28:11.195Z,10.03
2023-04-01T01:29:30.345Z,10.01
2023-04-01T01:30:52.947Z,9.95
2023-04-01T01:32:04.190Z,9.92
2023-04-01T01:33:39.158Z,9.95
2023-04-01T01:34:59.817Z,10.07
2023-04-01T01:36:06.015Z,10.06
2023-04-01T01:37:14.623Z,10.06
2023-04-01T01:38:27.775Z,10.00
2023-04-01T01:39:32.904Z,10.00
2023-04-01T01:40:37.652Z,10.01
2023-04-01T01:41:42.847Z,10.10
2023-04-01T01:42:49.537Z,10.12
2023-04-01T01:43:54.532Z,10.14
2023-04-01T01:44:58.443Z,10.10
2023-04-01T01:46:06.318Z,10.10
2023-04-01T01:47:08.861Z,10.15
2023-04-01T01:48:12.135Z,10.08
2023-04-01T01:49:15.475Z,9.95
2023-04-01T01:50:18.740Z,9.98
2023-04-01T01:51:22.452Z,9.94
2023-04-01T01:52:24.777Z,9.98
2023-04-01T01:53:26.318Z,10.01
2023-04-01T01:54:27.758Z,10.05
2023-04-01T01:55:32.569Z,10.01
2023-04-01T01:56:36.375Z,10.02
2023-04-01T01:57:39.959Z,9.97
2023-04-01T01:58:45.553Z,9.92
2023-04-01T01:59:49.908Z,9.92
2023-04-01T02:00:56.148Z,9.86
2023-04-01T02:01:58.370Z,9.93
2023-04-01T02:03:01.337Z,9.97
2023-04-01T02:04:03.668Z,9.93
2023-04-01T02:05:06.660Z,9.93
2023-04-01T02:06:09.602Z,9.95
2023-04-01T02:07:34.729Z,9.96
2023-04-01T02:08:45.880Z,10.00
2023-04-01T02:09:49.045Z,10.03
2023-04-01T02:11:06.666Z,10.09
2023-04-01T02:12:14.729Z,10.06
2023-04-01T02:13:30.624Z,9.99
2023-04-01T02:14:41.552Z,9.91
2023-04-01T02:15:48.129Z,9.87
2023-04-01T02:17:04.570Z,9.87
2023-04-01T02:18:06.295Z,9.92
2023-04-01T02:19:09.889Z,9.90
2023-04-01T02:20:16.900Z,9.94
2023-04-01T02:21:22.201Z,9.94
2023-04-01T02:22:35.351Z,9.91
2023-04-01T02:23:39.856Z,9.96
2023-04-01T02:24:44.294Z,9.95
2023-04-01T02:25:47.466Z,9.95
2023-04-01T02:26:52.048Z,9.94
2023-04-01T02:27:55.822Z,9.95
2023-04-01T02:28:58.490Z,9.98
2023-04-01T02:30:00.295Z,9.98
2023-04-01T02:31:03.821Z,9.98
2023-04-01T02:32:08.238Z,10.05
2023-04-01T02:33:09.889Z,10.05
2023-04-01T02:34:11.939Z,10.09
2023-04-01T02:35:16.374Z,10.15
2023-04-01T02:36:18.464Z,10.14
2023-04-01T02:37:20.357Z,10.09
2023-04-01T02:38:22.213Z,10.05
2023-04-01T02:39:23.834Z,10.07
2023-04-01T02:40:25.521Z,10.12
2023-04-01T02:41:27.192Z,10.07
2023-04-01T02:42:28.686Z,10.05
2023-04-01T02:43:30.255Z,10.07
2023-04-01T02:44:32.034Z,10.02
2023-04-01T02:45:33.694Z,10.12
2023-04-01T02:46:35.390Z,10.17
2023-04-01T02:47:36.901Z,10.19
2023-04-01T02:48:38.409Z,10.15
2023-04-01T02:49:39.903Z,10.14
2023-04-01T02:50:41.351Z,10.13
2023-04-01T02:51:42.786Z,10.12
2023-04-01T02:52:44.214Z,10.07
2023-04-01T02:53:45.771Z,10.08
2023-04-01T02:54:47.205Z,10.11
2023-04-01T02:55:51.379Z,10.14
2023-04-01T02:56:52.852Z,10.10
2023-04-01T02:57:54.324Z,10.08
2023-04-01T02:58:56.758Z,10.00
2023-04-01T02:59:58.289Z,10.01
2023-04-01T03:00:59.804Z,10.11
2023-04-01T03:02:01.341Z,10.15
2023-04-01T03:03:03.797Z,10.16
2023-04-01T03:04:06.221Z,10.16
2023-04-01T03:05:08.197Z,10.16
2023-04-01T03:06:13.035Z,10.16
2023-04-01T03:07:14.501Z,10.15
2023-04-01T03:08:16.161Z,10.17
2023-04-01T03:09:17.775Z,10.12
2023-04-01T03:10:19.350Z,10.05
2023-04-01T03:11:22.497Z,10.03
2023-04-01T03:12:23.921Z,10.04
2023-04-01T03:13:25.481Z,10.05
2023-04-01T03:14:27.035Z,10.06
2023-04-01T03:15:28.569Z,10.06
2023-04-01T03:16:30.404Z,10.07
2023-04-01T03:17:32.974Z,10.09
2023-04-01T03:18:34.460Z,10.11
2023-04-01T03:19:36.007Z,10.15
2023-04-01T03:20:37.463Z,10.15
2023-04-01T03:21:39.389Z,10.16
2023-04-01T03:22:42.864Z,10.17
2023-04-01T03:23:44.884Z,10.14
2023-04-01T03:24:46.345Z,10.11
2023-04-01T03:25:49.004Z,10.13
2023-04-01T03:26:50.681Z,10.04
2023-04-01T03:27:52.157Z,10.04
2023-04-01T03:28:54.272Z,10.07
2023-04-01T03:29:55.750Z,10.08
2023-04-01T03:30:57.678Z,10.07
2023-04-01T03:31:59.895Z,10.10
2023-04-01T03:33:01.828Z,10.13
2023-04-01T03:34:03.356Z,10.13
2023-04-01T03:35:05.933Z,10.13
2023-04-01T03:36:08.268Z,10.11
2023-04-01T03:37:09.749Z,10.06
2023-04-01T03:38:11.200Z,10.07
2023-04-01T03:39:13.103Z,10.12
2023-04-01T03:40:14.625Z,10.10
2023-04-01T03:41:18.015Z,10.14
2023-04-01T03:42:19.590Z,10.07
2023-04-01T03:43:21.461Z,9.98
2023-04-01T03:44:22.895Z,9.94
2023-04-01T03:45:24.747Z,9.95
2023-04-01T03:46:26.218Z,9.85
2023-04-01T03:47:27.661Z,9.94
2023-04-01T03:48:29.122Z,9.99
2023-04-01T03:49:30.826Z,9.98
2023-04-01T03:50:32.327Z,9.99
2023-04-01T03:51:33.794Z,10.03
2023-04-01T03:52:35.737Z,10.00
2023-04-01T03:53:37.249Z,10.03
2023-04-01T03:54:39.054Z,10.08
2023-04-01T03:55:40.892Z,10.11
2023-04-01T03:56:42.404Z,10.11
2023-04-01T03:57:43.824Z,10.09
2023-04-01T03:58:45.327Z,10.11
2023-04-01T03:59:46.747Z,10.14
2023-04-01T04:00:48.197Z,10.11
2023-04-01T04:01:49.637Z,10.10
2023-04-01T04:02:51.468Z,10.15
2023-04-01T04:03:53.230Z,10.08
2023-04-01T04:04:54.942Z,10.08
2023-04-01T04:05:57.585Z,10.07
2023-04-01T04:06:59.388Z,9.95
2023-04-01T04:08:00.846Z,9.98
2023-04-01T04:09:02.449Z,9.97
2023-04-01T04:10:04.665Z,9.97
2023-04-01T04:12:07.613Z,9.97
2023-04-01T04:13:09.027Z,9.95
2023-04-01T04:14:10.644Z,9.95
2023-04-01T04:15:12.979Z,9.95
2023-04-01T04:16:15.742Z,9.93
2023-04-01T04:17:17.438Z,9.96
2023-04-01T04:18:18.989Z,10.01
2023-04-01T04:19:20.478Z,10.08
2023-04-01T04:20:22.278Z,10.13
2023-04-01T04:21:23.831Z,10.10
2023-04-01T04:22:25.361Z,10.04
2023-04-01T04:23:26.904Z,10.07
2023-04-01T04:24:28.529Z,10.05
2023-04-01T04:25:30.521Z,10.01
2023-04-01T04:26:32.217Z,10.06
2023-04-01T04:27:34.270Z,10.07
2023-04-01T04:28:36.001Z,9.97
2023-04-01T04:29:37.469Z,10.00
2023-04-01T04:30:39.220Z,10.02
2023-04-01T04:31:40.800Z,10.01
2023-04-01T04:32:43.092Z,10.03
2023-04-01T04:33:44.757Z,9.87
2023-04-01T04:34:46.253Z,9.87
2023-04-01T04:35:48.016Z,9.87
2023-04-01T04:36:49.965Z,9.82
2023-04-01T04:37:51.558Z,9.77
2023-04-01T04:38:53.064Z,9.85
2023-04-01T04:39:54.880Z,9.79
2023-04-01T04:40:56.726Z,9.79
2023-04-01T04:41:58.139Z,9.79
2023-04-01T04:42:59.594Z,9.80
2023-04-01T04:44:01.039Z,9.85
2023-04-01T04:45:02.910Z,9.88
2023-04-01T04:46:11.873Z,9.94
2023-04-01T04:47:13.454Z,9.95
2023-04-01T04:48:22.344Z,9.95
2023-04-01T04:49:23.809Z,9.90
2023-04-01T04:50:26.638Z,9.88
2023-04-01T04:51:28.403Z,9.88
2023-04-01T04:52:29.862Z,9.82
2023-04-01T04:53:31.309Z,9.75
2023-04-01T04:54:32.787Z,9.62
2023-04-01T04:55:34.461Z,9.59
2023-04-01T04:56:36.902Z,9.61
2023-04-01T04:57:38.452Z,9.60
2023-04-01T04:58:40.298Z,9.64
2023-04-01T04:59:42.070Z,9.69
2023-04-01T05:00:44.072Z,9.73
2023-04-01T05:01:45.844Z,9.75
2023-04-01T05:02:47.583Z,9.62
2023-04-01T05:03:49.419Z,9.54
2023-04-01T05:04:51.007Z,9.50
2023-04-01T05:05:54.611Z,9.57
2023-04-01T05:06:56.183Z,9.48
2023-04-01T05:07:57.639Z,9.54
2023-04-01T05:08:59.127Z,9.66
2023-04-01T05:10:01.060Z,9.59
2023-04-01T05:11:03.519Z,9.69
2023-04-01T05:12:05.289Z,9.64
2023-04-01T05:13:07.749Z,9.64
2023-04-01T05:14:18.754Z,9.61
2023-04-01T05:15:20.321Z,9.62
2023-04-01T05:16:22.251Z,9.64
2023-04-01T05:17:23.798Z,9.69
2023-04-01T05:18:25.638Z,9.69
2023-04-01T05:19:27.608Z,9.63
2023-04-01T05:20:29.299Z,9.73
2023-04-01T05:21:30.827Z,9.73
2023-04-01T05:22:32.274Z,9.62
2023-04-01T05:23:34.151Z,9.65
2023-04-01T05:24:35.681Z,9.63
2023-04-01T05:25:39.360Z,9.61
2023-04-01T05:26:40.778Z,9.56
2023-04-01T05:27:42.300Z,9.66
2023-04-01T05:28:43.847Z,9.67
2023-04-01T05:29:45.373Z,9.52
2023-04-01T05:30:47.190Z,9.57
2023-04-01T05:31:48.660Z,9.54
2023-04-01T05:32:50.322Z,9.53
2023-04-01T05:33:51.896Z,9.43
2023-04-01T05:34:54.524Z,9.39
2023-04-01T05:35:56.480Z,9.39
2023-04-01T05:36:57.956Z,9.36
2023-04-01T05:37:59.452Z,9.31
2023-04-01T05:39:01.269Z,9.37
2023-04-01T05:40:04.023Z,9.50
2023-04-01T05:41:05.645Z,9.57
2023-04-01T05:42:08.484Z,9.59
2023-04-01T05:43:10.023Z,9.48
2023-04-01T05:44:12.873Z,9.47
2023-04-01T05:45:16.726Z,9.51
2023-04-01T05:46:18.368Z,9.49
2023-04-01T05:47:19.930Z,9.54
2023-04-01T05:48:39.669Z,9.58
2023-04-01T05:49:45.023Z,9.62
2023-04-01T05:50:47.422Z,9.54
2023-04-01T05:51:48.930Z,9.61
2023-04-01T05:52:50.392Z,9.54
2023-04-01T05:53:53.346Z,9.54
2023-04-01T05:54:54.975Z,9.49
2023-04-01T05:55:56.535Z,9.48
2023-04-01T05:56:58.028Z,9.59
2023-04-01T05:57:59.513Z,9.62
2023-04-01T05:59:01.414Z,9.53
2023-04-01T06:00:04.374Z,9.44
2023-04-01T06:01:14.095Z,9.43
2023-04-01T06:02:18.878Z,9.39
2023-04-01T06:03:20.434Z,9.48
2023-04-01T06:04:22.629Z,9.59
2023-04-01T06:05:26.456Z,9.62
2023-04-01T06:06:29.997Z,9.55
2023-04-01T06:07:31.482Z,9.62
2023-04-01T06:08:33.456Z,9.65
2023-04-01T06:09:34.874Z,9.57
2023-04-01T06:11:02.237Z,9.51
2023-04-01T06:12:22.154Z,9.51
2023-04-01T06:13:40.482Z,9.48
2023-04-01T06:14:52.511Z,9.48
2023-04-01T06:16:44.772Z,9.56
2023-04-01T06:18:04.403Z,9.43
2023-04-01T06:19:18.796Z,9.42
2023-04-01T06:20:48.804Z,9.38
2023-04-01T06:22:02.728Z,9.46
2023-04-01T06:23:16.836Z,9.45
2023-04-01T06:24:26.386Z,9.46
2023-04-01T06:26:32.870Z,9.56
2023-04-01T06:28:09.339Z,9.55
2023-04-01T06:29:28.245Z,9.54
2023-04-01T06:30:41.489Z,9.72
2023-04-01T06:31:52.840Z,9.78
2023-04-01T06:33:03.473Z,9.94
2023-04-01T06:34:27.896Z,9.97
2023-04-01T06:35:47.244Z,9.98
2023-04-01T06:37:07.740Z,10.05
2023-04-01T06:38:18.769Z,10.22
2023-04-01T06:39:31.524Z,10.14
2023-04-01T06:40:39.150Z,10.17
2023-04-01T06:41:55.858Z,10.22
2023-04-01T06:43:32.780Z,10.19
2023-04-01T06:44:56.720Z,10.31
2023-04-01T06:46:35.353Z,10.41
2023-04-01T06:48:02.769Z,10.20
2023-04-01T06:49:22.403Z,10.13
2023-04-01T06:50:32.013Z,10.23
2023-04-01T06:51:47.617Z,10.27
2023-04-01T06:53:27.388Z,10.28
2023-04-01T06:54:39.907Z,10.17
2023-04-01T06:55:48.248Z,10.23
2023-04-01T06:56:56.699Z,10.24
2023-04-01T06:58:01.361Z,10.30
2023-04-01T06:59:13.525Z,10.30
2023-04-01T07:00:23.787Z,10.31
2023-04-01T07:01:35.546Z,10.34
2023-04-01T07:02:46.560Z,10.39
2023-04-01T07:03:56.807Z,10.46
2023-04-01T07:04:59.450Z,10.34
2023-04-01T07:06:05.390Z,10.29
2023-04-01T07:07:34.294Z,10.28
2023-04-01T07:08:41.409Z,10.23
2023-04-01T07:09:51.065Z,10.12
2023-04-01T07:10:59.673Z,10.14
2023-04-01T07:12:07.298Z,10.20
2023-04-01T07:13:17.010Z,10.24
2023-04-01T07:14:26.730Z,10.23
2023-04-01T07:15:55.527Z,10.27
2023-04-01T07:17:07.357Z,10.27
2023-04-01T07:18:17.757Z,10.30
2023-04-01T07:19:45.607Z,10.38
2023-04-01T07:20:48.064Z,10.44
2023-04-01T07:21:55.702Z,10.29
2023-04-01T07:23:00.445Z,10.33
2023-04-01T07:24:07.260Z,10.20
2023-04-01T07:25:15.441Z,10.11
2023-04-01T07:26:21.813Z,10.17
2023-04-01T07:27:24.095Z,10.15
2023-04-01T07:28:31.330Z,10.20
2023-04-01T07:29:33.029Z,10.22
2023-04-01T07:31:03.570Z,10.17
2023-04-01T07:32:41.212Z,10.11
2023-04-01T07:33:52.023Z,10.24
2023-04-01T07:35:02.610Z,10.33
2023-04-01T07:36:17.252Z,10.47
2023-04-01T07:37:21.355Z,10.45
2023-04-01T07:38:39.857Z,10.46
2023-04-01T07:39:50.264Z,10.40
2023-04-01T07:41:13.393Z,10.42
2023-04-01T07:42:21.898Z,10.52
2023-04-01T07:43:26.502Z,10.58
2023-04-01T07:45:11.416Z,10.62
2023-04-01T07:46:31.869Z,10.66
2023-04-01T07:47:57.847Z,10.64
2023-04-01T07:49:11.539Z,10.71
2023-04-01T07:50:19.207Z,10.74
2023-04-01T07:51:47.102Z,10.72
2023-04-01T07:53:00.322Z,10.59
2023-04-01T07:54:27.390Z,10.48
2023-04-01T07:55:38.247Z,10.48
2023-04-01T07:56:52.690Z,10.50
2023-04-01T07:58:33.302Z,10.39
2023-04-01T07:59:56.668Z,10.49
2023-04-01T08:01:04.963Z,10.48
2023-04-01T08:02:22.149Z,10.36
2023-04-01T08:03:38.946Z,10.44
2023-04-01T08:05:13.080Z,10.41
2023-04-01T08:06:29.473Z,10.41
2023-04-01T08:07:54.335Z,10.31
2023-04-01T08:09:08.062Z,10.23
2023-04-01T08:10:31.585Z,10.19
2023-04-01T08:12:03.178Z,10.28
2023-04-01T08:13:31.144Z,10.35
2023-04-01T08:15:00.218Z,10.37
2023-04-01T08:16:31.938Z,10.46
2023-04-01T08:17:36.692Z,10.57
2023-04-01T08:18:48.061Z,10.64
2023-04-01T08:20:03.936Z,10.52
2023-04-01T08:21:15.632Z,10.51
2023-04-01T08:22:30.065Z,10.45
2023-04-01T08:23:34.895Z,10.49
2023-04-01T08:24:47.921Z,10.56
2023-04-01T08:25:57.576Z,10.57
2023-04-01T08:27:04.372Z,10.54
2023-04-01T08:28:35.052Z,10.61
2023-04-01T08:30:00.951Z,10.69
2023-04-01T08:31:05.720Z,10.75
2023-04-01T08:32:13.576Z,10.63
2023-04-01T08:33:22.721Z,10.55
2023-04-01T08:34:35.102Z,10.46
2023-04-01T08:35:46.999Z,10.58
2023-04-01T08:36:55.277Z,10.62
2023-04-01T08:38:02.306Z,10.49
2023-04-01T08:39:19.164Z,10.51
2023-04-01T08:40:57.053Z,10.51
2023-04-01T08:42:24.405Z,10.54
2023-04-01T08:43:55.995Z,10.45
2023-04-01T08:45:35.316Z,10.41
2023-04-01T08:47:02.746Z,10.44
2023-04-01T08:48:55.534Z,10.57
2023-04-01T08:50:23.434Z,10.65
2023-04-01T08:51:49.599Z,10.70
2023-04-01T08:53:01.016Z,10.63
2023-04-01T08:54:02.751Z,10.52
2023-04-01T08:55:24.171Z,10.59
2023-04-01T08:56:34.616Z,10.52
2023-04-01T08:57:52.102Z,10.61
2023-04-01T08:59:10.931Z,10.61
2023-04-01T09:00:27.779Z,10.57
2023-04-01T09:01:51.735Z,10.58
2023-04-01T09:03:25.888Z,10.52
2023-04-01T09:04:53.436Z,10.56
2023-04-01T09:06:00.958Z,10.60
2023-04-01T09:07:20.594Z,10.65
2023-04-01T09:09:12.926Z,10.59
2023-04-01T09:10:51.778Z,10.65
2023-04-01T09:12:08.928Z,10.65
2023-04-01T09:13:35.632Z,10.69
2023-04-01T09:14:57.827Z,10.65
2023-04-01T09:16:12.393Z,10.63
2023-04-01T09:17:16.503Z,10.66
2023-04-01T09:18:50.557Z,10.72
2023-04-01T09:20:00.959Z,10.74
2023-04-01T09:21:30.046Z,10.76
2023-04-01T09:22:52.723Z,10.83
2023-04-01T09:23:57.237Z,10.86
2023-04-01T09:25:26.750Z,10.79
2023-04-01T09:26:52.568Z,10.79
2023-04-01T09:28:02.727Z,10.65
2023-04-01T09:29:33.744Z,10.40
2023-04-01T09:30:52.677Z,10.38
2023-04-01T09:32:12.967Z,10.42
2023-04-01T09:33:38.461Z,10.44
2023-04-01T09:34:42.915Z,10.50
2023-04-01T09:35:49.864Z,10.48
2023-04-01T09:37:11.472Z,10.50
2023-04-01T09:38:31.380Z,10.56
2023-04-01T09:39:49.492Z,10.62
2023-04-01T09:41:21.114Z,10.65
2023-04-01T09:42:26.047Z,10.66
2023-04-01T09:43:44.198Z,10.70
2023-04-01T09:44:58.887Z,10.63
2023-04-01T09:46:13.045Z,10.63
2023-04-01T09:47:58.308Z,10.64
2023-04-01T09:49:20.869Z,10.66
2023-04-01T09:50:43.566Z,10.70
2023-04-01T09:52:08.594Z,10.69
2023-04-01T09:53:41.280Z,10.74
2023-04-01T09:54:59.784Z,10.72
2023-04-01T09:56:29.306Z,10.65
2023-04-01T09:58:08.572Z,10.62
2023-04-01T09:59:34.062Z,10.49
2023-04-01T10:00:54.478Z,10.54
2023-04-01T10:02:22.765Z,10.60
2023-04-01T10:03:45.963Z,10.60
2023-04-01T10:04:53.508Z,10.61
2023-04-01T10:06:26.582Z,10.70
2023-04-01T10:07:37.021Z,10.73
2023-04-01T10:09:17.428Z,10.65
2023-04-01T10:10:45.591Z,10.56
2023-04-01T10:11:59.236Z,10.49
2023-04-01T10:13:24.118Z,10.40
2023-04-01T10:14:30.404Z,10.45
2023-04-01T10:15:35.088Z,10.48
2023-04-01T10:16:55.027Z,10.55
2023-04-01T10:18:06.188Z,10.48
2023-04-01T10:19:44.228Z,10.25
2023-04-01T10:21:08.117Z,10.33
2023-04-01T10:22:34.299Z,10.38
2023-04-01T10:23:54.500Z,10.34
2023-04-01T10:25:49.849Z,10.23
2023-04-01T10:27:11.187Z,10.23
2023-04-01T10:28:31.260Z,10.24
2023-04-01T10:30:06.465Z,10.37
2023-04-01T10:31:39.203Z,10.43
2023-04-01T10:32:43.631Z,10.40
2023-04-01T10:34:24.671Z,10.44
2023-04-01T10:36:03.611Z,10.50
2023-04-01T10:37:38.727Z,10.38
2023-04-01T10:38:58.464Z,10.31
2023-04-01T10:40:08.633Z,10.25
2023-04-01T10:41:37.652Z,10.34
2023-04-01T10:43:03.973Z,10.23
2023-04-01T10:44:27.975Z,10.18
2023-04-01T10:45:59.092Z,9.93
2023-04-01T10:47:02.542Z,9.94
2023-04-01T10:48:35.443Z,10.06
2023-04-01T10:49:49.177Z,9.98
2023-04-01T10:51:06.851Z,9.95
2023-04-01T10:52:59.738Z,9.92
2023-04-01T10:54:35.145Z,9.84
2023-04-01T10:55:38.333Z,9.80
2023-04-01T10:56:41.640Z,9.79
2023-04-01T10:58:12.282Z,9.84
2023-04-01T10:59:42.951Z,9.74
2023-04-01T11:01:21.659Z,9.77
2023-04-01T11:02:46.856Z,9.89
2023-04-01T11:04:06.698Z,9.95
2023-04-01T11:05:23.245Z,10.02
2023-04-01T11:07:00.061Z,9.92
2023-04-01T11:08:23.768Z,9.96
2023-04-01T11:09:47.071Z,9.98
2023-04-01T11:11:10.401Z,10.05
2023-04-01T11:12:14.954Z,9.84
2023-04-01T11:13:58.234Z,9.87
2023-04-01T11:15:33.095Z,9.83
2023-04-01T11:16:41.024Z,9.92
2023-04-01T11:17:51.967Z,9.96
2023-04-01T11:19:21.740Z,10.01
2023-04-01T11:20:26.283Z,10.08
2023-04-01T11:21:55.850Z,10.12
2023-04-01T11:23:04.772Z,10.13
2023-04-01T11:24:36.345Z,10.18
2023-04-01T11:25:58.560Z,10.22
2023-04-01T11:27:26.639Z,10.21
2023-04-01T11:28:52.584Z,10.20
2023-04-01T11:30:25.186Z,10.19
2023-04-01T11:32:05.653Z,10.18
2023-04-01T11:33:22.623Z,10.11
2023-04-01T11:34:39.296Z,10.10
2023-04-01T11:35:59.082Z,9.94
2023-04-01T11:37:18.513Z,9.97
2023-04-01T11:38:42.137Z,9.79
2023-04-01T11:40:00.883Z,9.95
2023-04-01T11:41:29.154Z,10.01
2023-04-01T11:42:39.156Z,9.87
2023-04-01T11:43:59.205Z,9.95
2023-04-01T11:45:49.902Z,9.92
2023-04-01T11:47:20.588Z,9.91
2023-04-01T11:48:31.250Z,9.97
2023-04-01T11:50:01.084Z,10.09
2023-04-01T11:51:33.466Z,10.04
2023-04-01T11:53:22.084Z,10.15
2023-04-01T11:54:39.094Z,10.03
2023-04-01T11:55:52.592Z,10.04
2023-04-01T11:57:14.388Z,10.11
2023-04-01T11:58:31.066Z,10.13
2023-04-01T11:59:57.815Z,10.11
2023-04-01T12:01:13.921Z,10.20
2023-04-01T12:02:42.187Z,10.18
2023-04-01T12:04:02.912Z,10.00
2023-04-01T12:05:20.024Z,9.92
2023-04-01T12:06:40.400Z,9.95
2023-04-01T12:08:05.421Z,10.06
2023-04-01T12:09:16.229Z,10.14
2023-04-01T12:10:39.713Z,9.98
2023-04-01T12:11:59.515Z,10.01
2023-04-01T12:13:15.582Z,10.00
2023-04-01T12:14:51.265Z,9.96
2023-04-01T12:16:05.949Z,9.86
2023-04-01T12:17:28.865Z,9.93
2023-04-01T12:18:40.550Z,9.99
2023-04-01T12:20:12.805Z,10.05
2023-04-01T12:21:33.190Z,10.15
2023-04-01T12:23:03.753Z,10.24
2023-04-01T12:24:40.585Z,10.22
2023-04-01T12:26:06.943Z,10.11
2023-04-01T12:27:20.484Z,10.10
2023-04-01T12:28:41.144Z,10.00
2023-04-01T12:30:10.490Z,10.00
2023-04-01T12:31:28.350Z,10.00
2023-04-01T12:32:34.223Z,10.03
2023-04-01T12:34:00.403Z,10.10
2023-04-01T12:35:08.346Z,10.14
2023-04-01T12:36:32.079Z,10.13
2023-04-01T12:37:54.781Z,10.14
2023-04-01T12:39:09.251Z,10.13
2023-04-01T12:40:48.899Z,10.10
2023-04-01T12:42:01.571Z,10.12
2023-04-01T12:43:06.004Z,10.06
2023-04-01T12:44:10.896Z,10.07
2023-04-01T12:45:30.006Z,10.08
2023-04-01T12:47:08.721Z,9.98
2023-04-01T12:48:16.520Z,9.95
2023-04-01T12:49:34.832Z,9.94
2023-04-01T12:50:48.697Z,10.01
2023-04-01T12:52:07.428Z,10.01
2023-04-01T12:53:35.701Z,10.09
2023-04-01T12:54:46.228Z,10.00
2023-04-01T12:55:53.750Z,9.99
2023-04-01T12:57:17.359Z,10.04
2023-04-01T12:58:31.023Z,10.14
2023-04-01T12:59:47.760Z,10.25
2023-04-01T13:01:22.442Z,10.29
2023-04-01T13:03:00.815Z,10.26
2023-04-01T13:04:02.726Z,10.16
2023-04-01T13:05:16.540Z,10.19
2023-04-01T13:06:43.227Z,10.18
2023-04-01T13:08:08.890Z,10.06
2023-04-01T13:09:37.720Z,9.93
2023-04-01T13:10:59.715Z,9.95
2023-04-01T13:12:52.671Z,10.06
2023-04-01T13:14:31.900Z,9.99
2023-04-01T13:15:43.763Z,9.97
2023-04-01T13:17:22.340Z,10.00
2023-04-01T13:18:56.533Z,10.08
2023-04-01T13:20:12.669Z,10.09
2023-04-01T13:21:42.418Z,10.14
2023-04-01T13:23:08.736Z,10.11
2023-04-01T13:24:49.400Z,10.13
2023-04-01T13:26:14.067Z,10.15
2023-04-01T13:27:51.627Z,10.09
2023-04-01T13:29:44.519Z,10.05
2023-04-01T13:31:10.094Z,10.00
2023-04-01T13:34:06.109Z,10.14
2023-04-01T13:35:24.706Z,10.19
2023-04-01T13:36:32.335Z,10.21
2023-04-01T13:37:52.144Z,10.20
2023-04-01T13:39:27.871Z,10.30
2023-04-01T13:40:38.384Z,10.36
2023-04-01T13:41:56.388Z,10.25
2023-04-01T13:43:05.661Z,10.24
2023-04-01T13:44:20.654Z,10.22
2023-04-01T13:46:09.543Z,10.17
2023-04-01T13:47:38.934Z,10.08
2023-04-01T13:48:50.518Z,10.13
2023-04-01T13:49:57.783Z,10.19
2023-04-01T13:51:13.501Z,10.27
2023-04-01T13:52:42.142Z,10.37
2023-04-01T13:54:05.470Z,10.38
2023-04-01T13:55:28.953Z,10.31
2023-04-01T13:56:30.410Z,10.38
2023-04-01T13:57:49.225Z,10.36
2023-04-01T13:59:21.770Z,10.29
2023-04-01T14:00:32.831Z,10.24
2023-04-01T14:01:48.152Z,10.35
2023-04-01T14:03:25.078Z,10.29
2023-04-01T14:04:51.596Z,10.22
2023-04-01T14:06:07.000Z,10.31
2023-04-01T14:07:19.651Z,10.37
2023-04-01T14:08:58.115Z,10.36
2023-04-01T14:10:19.603Z,10.35
2023-04-01T14:11:33.500Z,10.43
2023-04-01T14:13:17.130Z,10.42
2023-04-01T14:14:57.164Z,10.50
2023-04-01T14:16:16.357Z,10.54
2023-04-01T14:17:33.266Z,10.59
2023-04-01T14:18:49.311Z,10.59
2023-04-01T14:20:15.101Z,10.52
2023-04-01T14:21:35.081Z,10.42
2023-04-01T14:22:50.929Z,10.38
2023-04-01T14:24:13.636Z,10.37
2023-04-01T14:25:37.443Z,10.31
2023-04-01T14:26:45.135Z,10.15
2023-04-01T14:27:59.333Z,10.01
2023-04-01T14:29:19.432Z,10.11
2023-04-01T14:30:35.964Z,10.09
2023-04-01T14:32:00.802Z,10.09
2023-04-01T14:33:17.625Z,10.12
2023-04-01T14:34:59.283Z,10.10
2023-04-01T14:36:39.629Z,10.15
2023-04-01T14:37:50.088Z,10.21
2023-04-01T14:39:04.216Z,10.21
2023-04-01T14:40:43.289Z,10.05
2023-04-01T14:42:12.144Z,10.14
2023-04-01T14:44:12.796Z,10.28
2023-04-01T14:45:33.149Z,10.25
2023-04-01T14:46:54.815Z,10.28
2023-04-01T14:47:58.112Z,10.30
2023-04-01T14:49:33.524Z,10.30
2023-04-01T14:50:46.946Z,10.33
2023-04-01T14:51:49.515Z,10.35
2023-04-01T14:53:17.097Z,10.25
2023-04-01T14:54:36.736Z,10.12
2023-04-01T14:55:44.317Z,10.15
2023-04-01T14:56:50.737Z,10.17
2023-04-01T14:58:07.620Z,10.21
2023-04-01T14:59:14.580Z,10.17
2023-04-01T15:00:19.756Z,10.06
2023-04-01T15:01:43.762Z,10.10
2023-04-01T15:03:03.221Z,10.11
2023-04-01T15:04:16.590Z,10.03
2023-04-01T15:05:28.477Z,9.93
2023-04-01T15:06:52.110Z,9.97
2023-04-01T15:08:11.736Z,10.07
2023-04-01T15:09:34.011Z,10.11
2023-04-01T15:11:04.439Z,10.18
2023-04-01T15:12:11.886Z,10.18
2023-04-01T15:13:30.473Z,10.17
2023-04-01T15:14:39.773Z,10.14
2023-04-01T15:16:18.954Z,10.15
2023-04-01T15:17:47.854Z,10.11
2023-04-01T15:19:20.505Z,10.16
2023-04-01T15:20:52.526Z,10.06
2023-04-01T15:22:12.714Z,10.04
2023-04-01T15:23:27.233Z,10.05
2023-04-01T15:24:59.557Z,10.08
2023-04-01T15:26:13.439Z,10.04
2023-04-01T15:27:29.979Z,10.08
2023-04-01T15:29:10.665Z,10.09
2023-04-01T15:30:18.290Z,10.07
2023-04-01T15:31:43.766Z,10.12
2023-04-01T15:33:15.405Z,10.10
2023-04-01T15:34:39.420Z,10.12
2023-04-01T15:36:01.500Z,10.15
2023-04-01T15:37:21.192Z,10.17
2023-04-01T15:38:41.198Z,10.11
2023-04-01T15:40:01.528Z,10.12
2023-04-01T15:41:17.310Z,10.03
2023-04-01T15:42:30.040Z,10.03
2023-04-01T15:43:37.355Z,10.08
2023-04-01T15:44:56.383Z,10.08
2023-04-01T15:46:22.536Z,10.13
2023-04-01T15:47:26.881Z,10.18
2023-04-01T15:48:43.334Z,10.24
2023-04-01T15:49:51.157Z,10.28
2023-04-01T15:51:11.134Z,10.30
2023-04-01T15:52:49.870Z,10.30
2023-04-01T15:54:21.632Z,10.31
2023-04-01T15:55:48.738Z,10.26
2023-04-01T15:56:57.280Z,10.25
2023-04-01T15:58:30.882Z,10.20
2023-04-01T15:59:53.407Z,10.18
2023-04-01T16:00:57.308Z,10.13
2023-04-01T16:02:22.568Z,10.04